^^
Datos históricos de la estación: Murcia-Puente Tocinos
 
Diario Informe para Febrero 25, 2017 Unidades:  Métrico    Inglés   Ambas
« Anterior Día
Siguiente Día »
Diario Semanal Mensual Anual Configurable
  Actual: Máximo: Mínimo: Media:
Temperatura: 16.2 °C 16.7 °C 11.8 °C 13.3 °C
Punto de rocio: 9.4 °C 12.5 °C 8.9 °C 10.7 °C
Humedad: 64% 94% 63% 85%
Velocidad viento: 5.8km/h 8.7km/h 0.0km/h 4.8km/h
Racha viento: 9.5km/h 14.8km/h - -
VientoWNW - - SSO
Presión: 1018.5 hPa 1018.8 hPa 1015.1 hPa -
Precipitación: 0.0 mm      
Historical Graphs
 
 
Tabla de datos para Febrero 25, 2017
Hora Temperatura Punto de rocio Presión Viento Velocidad viento Racha viento Humedad Intensidad lluvia(por hora) Nubes
00:02 13.6 °C 12.5 °C 1015.1 hPa NE 6.4 km/h 8.4 km/h 93% 0.0 mm FEW
00:07 13.6 °C 12.5 °C 1015.1 hPa NE 6.4 km/h 9.3 km/h 93% 0.0 mm FEW
00:12 13.6 °C 12.5 °C 1015.1 hPa SE 5.8 km/h 8.4 km/h 93% 0.0 mm FEW
00:17 13.5 °C 12.4 °C 1015.1 hPa ESE 5.8 km/h 7.4 km/h 93% 0.0 mm BKN
00:22 13.4 °C 12.3 °C 1015.1 hPa East 5.0 km/h 7.4 km/h 93% 0.0 mm BKN
00:27 13.4 °C 12.3 °C 1015.1 hPa East 5.0 km/h 5.0 km/h 93% 0.0 mm BKN
00:32 13.4 °C 12.3 °C 1015.1 hPa East 3.2 km/h 3.7 km/h 93% 0.0 mm BKN
00:37 13.3 °C 12.2 °C 1015.1 hPa East 3.2 km/h 3.7 km/h 93% 0.0 mm BKN
00:42 13.3 °C 12.2 °C 1015.1 hPa Calm   5.6 km/h 93% 0.0 mm BKN
00:47 13.2 °C 12.1 °C 1015.5 hPa Calm   3.7 km/h 93% 0.0 mm BKN
00:52 13.2 °C 12.1 °C 1015.5 hPa WNW 2.9 km/h 3.7 km/h 93% 0.0 mm BKN
00:57 13.1 °C 12.2 °C 1015.5 hPa WNW 2.9 km/h 3.7 km/h 94% 0.0 mm BKN
01:02 13.1 °C 12.2 °C 1015.5 hPa WNW 2.3 km/h 3.7 km/h 94% 0.0 mm BKN
01:07 13.1 °C 12.2 °C 1015.5 hPa WNW 2.3 km/h 3.7 km/h 94% 0.0 mm BKN
01:12 13.1 °C 12.2 °C 1015.5 hPa WNW 2.3 km/h 3.7 km/h 94% 0.0 mm BKN
01:17 13.1 °C 12.2 °C 1015.5 hPa WNW 2.3 km/h 3.7 km/h 94% 0.0 mm OVC
01:22 13.1 °C 12.2 °C 1015.5 hPa WNW 2.3 km/h 2.3 km/h 94% 0.0 mm OVC
01:27 12.9 °C 11.8 °C 1015.5 hPa NE 2.3 km/h 5.6 km/h 93% 0.0 mm OVC
01:32 12.8 °C 11.7 °C 1015.5 hPa NE 2.9 km/h 2.9 km/h 93% 0.0 mm OVC
01:37 12.8 °C 11.7 °C 1015.5 hPa NE 2.9 km/h 3.7 km/h 93% 0.0 mm OVC
01:42 12.7 °C 11.8 °C 1015.5 hPa NE 2.3 km/h 3.7 km/h 94% 0.0 mm OVC
01:47 12.8 °C 11.8 °C 1015.5 hPa NE 2.3 km/h 2.3 km/h 94% 0.0 mm OVC
01:52 12.8 °C 11.8 °C 1015.5 hPa NE 2.3 km/h 3.7 km/h 94% 0.0 mm OVC
01:57 12.8 °C 11.8 °C 1015.5 hPa NE 2.3 km/h 3.7 km/h 94% 0.0 mm OVC
02:02 12.9 °C 11.9 °C 1015.5 hPa West 2.3 km/h 5.6 km/h 94% 0.0 mm OVC
02:07 13.0 °C 12.1 °C 1015.5 hPa WSW 2.3 km/h 5.6 km/h 94% 0.0 mm OVC
02:12 13.1 °C 12.2 °C 1015.5 hPa WSW 3.2 km/h 3.9 km/h 94% 0.0 mm OVC
02:17 13.1 °C 12.2 °C 1015.5 hPa WSW 3.2 km/h 3.7 km/h 94% 0.0 mm SCT
02:22 13.2 °C 12.3 °C 1015.5 hPa WSW 2.9 km/h 2.9 km/h 94% 0.0 mm SCT
02:28 13.2 °C 12.3 °C 1015.5 hPa WSW 2.9 km/h 2.9 km/h 94% 0.0 mm SCT
02:33 13.3 °C 12.3 °C 1015.5 hPa Calm   3.7 km/h 94% 0.0 mm SCT
02:43 13.4 °C 12.3 °C 1015.5 hPa SE 3.2 km/h 7.4 km/h 93% 0.0 mm SCT
02:48 13.4 °C 12.1 °C 1015.5 hPa SSE 3.2 km/h 7.4 km/h 92% 0.0 mm SCT
02:53 13.3 °C 12.0 °C 1015.5 hPa SE 5.8 km/h 11.1 km/h 92% 0.0 mm BKN
02:58 13.3 °C 12.0 °C 1015.5 hPa SSE 5.8 km/h 11.1 km/h 92% 0.0 mm BKN
03:03 13.3 °C 12.0 °C 1015.5 hPa SSE 6.9 km/h 9.5 km/h 92% 0.0 mm SCT
03:08 13.2 °C 11.9 °C 1015.5 hPa South 6.9 km/h 7.4 km/h 92% 0.0 mm BKN
03:13 13.2 °C 11.9 °C 1015.5 hPa South 6.9 km/h 9.3 km/h 92% 0.0 mm SCT
03:18 13.2 °C 11.9 °C 1015.5 hPa SW 6.9 km/h 7.6 km/h 92% 0.0 mm OVC
03:24 13.2 °C 11.8 °C 1015.5 hPa SSW 5.8 km/h 7.6 km/h 91% 0.0 mm OVC
03:29 13.2 °C 11.8 °C 1015.5 hPa SW 5.8 km/h 7.4 km/h 91% 0.0 mm OVC
03:34 13.2 °C 11.8 °C 1015.5 hPa WSW 5.0 km/h 5.6 km/h 91% 0.0 mm OVC
03:39 13.2 °C 11.8 °C 1015.5 hPa WSW 3.2 km/h 4.8 km/h 91% 0.0 mm BKN
03:44 13.2 °C 11.9 °C 1015.5 hPa WNW 3.2 km/h 5.8 km/h 92% 0.0 mm OVC
03:49 13.1 °C 11.8 °C 1015.5 hPa NW 3.2 km/h 3.7 km/h 92% 0.0 mm BKN
03:54 13.1 °C 12.0 °C 1015.5 hPa NW 3.2 km/h 3.7 km/h 93% 0.0 mm OVC
03:59 13.0 °C 11.9 °C 1015.5 hPa NW 2.9 km/h 5.6 km/h 93% 0.0 mm OVC
04:04 12.9 °C 11.8 °C 1015.5 hPa NW 2.9 km/h 5.6 km/h 93% 0.0 mm OVC
04:09 12.9 °C 11.8 °C 1015.5 hPa NW 2.9 km/h 3.7 km/h 93% 0.0 mm BKN
04:14 12.8 °C 11.7 °C 1015.5 hPa NW 2.9 km/h 3.7 km/h 93% 0.0 mm BKN
04:19 12.8 °C 11.7 °C 1015.5 hPa SW 2.3 km/h 5.0 km/h 93% 0.0 mm BKN
04:24 12.9 °C 11.8 °C 1015.5 hPa South 2.3 km/h 5.6 km/h 93% 0.0 mm BKN
04:29 12.9 °C 11.8 °C 1015.5 hPa SSE 4.7 km/h 7.4 km/h 93% 0.0 mm BKN
04:34 12.9 °C 11.8 °C 1015.5 hPa SE 4.7 km/h 7.4 km/h 93% 0.0 mm BKN
04:39 12.9 °C 11.8 °C 1015.5 hPa SE 4.7 km/h 4.7 km/h 93% 0.0 mm BKN
04:44 12.9 °C 11.6 °C 1015.5 hPa SE 4.7 km/h 5.6 km/h 92% 0.0 mm BKN
04:49 12.9 °C 11.6 °C 1015.8 hPa South 3.2 km/h 5.8 km/h 92% 0.0 mm BKN
04:54 12.8 °C 11.6 °C 1015.8 hPa SSE 3.2 km/h 9.5 km/h 92% 0.0 mm BKN
04:59 12.7 °C 11.6 °C 1015.8 hPa SSE 6.9 km/h 11.1 km/h 93% 0.0 mm BKN
05:05 12.6 °C 11.5 °C 1015.8 hPa SSE 6.9 km/h 13.0 km/h 93% 0.0 mm BKN
05:10 12.6 °C 11.5 °C 1015.8 hPa SSE 7.6 km/h 9.3 km/h 93% 0.0 mm BKN
05:15 12.6 °C 11.5 °C 1015.8 hPa SSE 7.6 km/h 9.3 km/h 93% 0.0 mm SCT
05:20 12.5 °C 11.4 °C 1015.8 hPa SSW 6.4 km/h 6.4 km/h 93% 0.0 mm BKN
05:25 12.5 °C 11.4 °C 1015.8 hPa South 6.4 km/h 7.4 km/h 93% 0.0 mm SCT
05:30 12.6 °C 11.7 °C 1015.8 hPa South 5.0 km/h 7.4 km/h 94% 0.0 mm BKN
05:35 12.6 °C 11.5 °C 1015.8 hPa South 5.0 km/h 5.6 km/h 93% 0.0 mm SCT
05:40 12.7 °C 11.6 °C 1015.8 hPa South 4.7 km/h 7.4 km/h 93% 0.0 mm BKN
05:45 12.7 °C 11.6 °C 1015.8 hPa SSE 4.7 km/h 6.4 km/h 93% 0.0 mm SCT
05:50 12.7 °C 11.4 °C 1015.8 hPa South 4.7 km/h 5.6 km/h 92% 0.0 mm BKN
05:55 12.8 °C 11.6 °C 1015.8 hPa South 4.7 km/h 11.1 km/h 92% 0.0 mm SCT
06:00 12.8 °C 11.4 °C 1015.8 hPa SSW 6.9 km/h 9.5 km/h 91% 0.0 mm SCT
06:05 12.8 °C 11.4 °C 1015.8 hPa SW 6.9 km/h 11.1 km/h 91% 0.0 mm SCT
06:10 12.8 °C 11.1 °C 1015.8 hPa SSW 7.6 km/h 13.0 km/h 89% 0.0 mm BKN
06:15 12.8 °C 11.1 °C 1015.8 hPa SSW 7.6 km/h 9.5 km/h 89% 0.0 mm BKN
06:20 12.8 °C 10.8 °C 1015.8 hPa SSW 6.9 km/h 10.0 km/h 88% 0.0 mm BKN
06:25 12.7 °C 10.8 °C 1015.8 hPa SSW 6.9 km/h 14.8 km/h 88% 0.0 mm BKN
06:30 12.7 °C 10.8 °C 1016.1 hPa SW 8.4 km/h 10.0 km/h 88% 0.0 mm BKN
06:35 12.7 °C 10.6 °C 1016.1 hPa SSW 8.4 km/h 11.1 km/h 87% 0.0 mm BKN
06:40 12.6 °C 10.3 °C 1016.1 hPa SSW 6.9 km/h 10.0 km/h 86% 0.0 mm BKN
06:45 12.4 °C 10.1 °C 1016.5 hPa SSW 6.9 km/h 14.8 km/h 86% 0.0 mm BKN
06:50 12.4 °C 9.9 °C 1016.5 hPa South 8.7 km/h 14.8 km/h 85% 0.0 mm BKN
06:55 12.4 °C 9.9 °C 1016.5 hPa SSW 8.7 km/h 11.1 km/h 85% 0.0 mm BKN
07:00 12.4 °C 9.8 °C 1016.5 hPa SSW 8.7 km/h 11.1 km/h 84% 0.0 mm BKN
07:05 12.4 °C 9.8 °C 1016.5 hPa SW 8.7 km/h 11.9 km/h 84% 0.0 mm BKN
07:10 12.4 °C 9.8 °C 1016.5 hPa WSW 6.9 km/h 9.3 km/h 84% 0.0 mm BKN
07:15 12.4 °C 9.6 °C 1016.5 hPa SW 6.9 km/h 9.3 km/h 83% 0.0 mm FEW
07:20 12.4 °C 9.6 °C 1016.5 hPa West 6.4 km/h 9.3 km/h 83% 0.0 mm FEW
07:25 12.4 °C 9.6 °C 1016.5 hPa SW 6.4 km/h 9.3 km/h 83% 0.0 mm FEW
07:30 12.4 °C 9.6 °C 1016.8 hPa SW 6.4 km/h 11.1 km/h 83% 0.0 mm FEW
07:35 12.3 °C 9.5 °C 1016.8 hPa WSW 6.4 km/h 11.1 km/h 83% 0.0 mm FEW
07:40 12.2 °C 9.4 °C 1016.8 hPa SW 8.4 km/h 12.2 km/h 83% 0.0 mm FEW
07:45 12.2 °C 9.4 °C 1016.8 hPa West 8.4 km/h 11.1 km/h 83% 0.0 mm FEW
07:50 12.1 °C 9.3 °C 1016.8 hPa WNW 7.6 km/h 9.3 km/h 83% 0.0 mm FEW
07:55 12.1 °C 9.3 °C 1016.8 hPa West 7.6 km/h 7.6 km/h 83% 0.0 mm FEW
08:00 12.1 °C 9.3 °C 1016.8 hPa West 5.8 km/h 7.4 km/h 83% 0.0 mm FEW
08:05 12.0 °C 9.2 °C 1016.8 hPa West 5.8 km/h 9.3 km/h 83% 0.0 mm FEW
08:10 11.9 °C 9.3 °C 1016.8 hPa West 5.8 km/h 9.3 km/h 84% 0.0 mm FEW
08:15 11.9 °C 9.3 °C 1017.5 hPa WSW 5.8 km/h 7.4 km/h 84% 0.0 mm
08:20 11.9 °C 9.3 °C 1017.5 hPa West 5.8 km/h 9.3 km/h 84% 0.0 mm
08:25 11.8 °C 9.2 °C 1017.5 hPa WNW 5.8 km/h 7.4 km/h 84% 0.0 mm
08:30 11.8 °C 9.2 °C 1017.5 hPa WNW 5.8 km/h 9.3 km/h 84% 0.0 mm
08:35 11.8 °C 9.0 °C 1017.5 hPa WNW 5.8 km/h 5.8 km/h 83% 0.0 mm BKN
08:40 11.9 °C 9.1 °C 1017.5 hPa WNW 3.9 km/h 5.6 km/h 83% 0.0 mm BKN
08:45 12.1 °C 9.1 °C 1017.8 hPa West 3.9 km/h 3.9 km/h 82% 0.0 mm BKN
08:50 12.2 °C 9.2 °C 1017.8 hPa WNW 2.9 km/h 5.8 km/h 82% 0.0 mm
08:55 12.3 °C 9.1 °C 1017.8 hPa SW 2.9 km/h 5.6 km/h 81% 0.0 mm
09:00 12.3 °C 9.1 °C 1017.8 hPa WSW 3.9 km/h 5.6 km/h 81% 0.0 mm
09:05 12.4 °C 9.1 °C 1017.8 hPa SW 3.9 km/h 3.9 km/h 80% 0.0 mm BKN
09:10 12.4 °C 9.1 °C 1017.8 hPa West 3.9 km/h 7.4 km/h 80% 0.0 mm BKN
09:15 12.5 °C 9.2 °C 1018.2 hPa WSW 3.9 km/h 7.4 km/h 80% 0.0 mm BKN
09:20 12.6 °C 9.1 °C 1018.2 hPa West 5.0 km/h 7.4 km/h 79% 0.0 mm BKN
09:25 12.6 °C 9.1 °C 1018.2 hPa SW 5.0 km/h 5.8 km/h 79% 0.0 mm FEW
09:30 12.6 °C 9.1 °C 1018.5 hPa WSW 3.9 km/h 7.4 km/h 79% 0.0 mm FEW
09:35 12.7 °C 9.2 °C 1018.5 hPa SW 3.9 km/h 7.4 km/h 79% 0.0 mm BKN
09:40 12.8 °C 9.1 °C 1018.5 hPa West 4.7 km/h 7.4 km/h 78% 0.0 mm BKN
09:45 12.8 °C 9.1 °C 1018.5 hPa SSW 4.7 km/h 7.4 km/h 78% 0.0 mm FEW
09:50 13.1 °C 9.2 °C 1018.5 hPa WSW 3.9 km/h 7.4 km/h 77% 0.0 mm FEW
09:55 13.2 °C 9.1 °C 1018.5 hPa SW 3.9 km/h 5.6 km/h 76% 0.0 mm FEW
10:00 13.2 °C 8.9 °C 1018.8 hPa SW 3.9 km/h 8.4 km/h 75% 0.0 mm FEW
10:05 13.4 °C 9.1 °C 1018.8 hPa WSW 3.9 km/h 7.4 km/h 75% 0.0 mm FEW
10:10 13.5 °C 8.9 °C 1018.8 hPa WSW 4.7 km/h 9.5 km/h 74% 0.0 mm FEW
10:15 13.7 °C 9.2 °C 1018.5 hPa WNW 4.7 km/h 7.4 km/h 74% 0.0 mm FEW
10:20 13.9 °C 9.3 °C 1018.5 hPa SSW 5.0 km/h 9.3 km/h 74% 0.0 mm FEW
10:25 14.0 °C 9.2 °C 1018.5 hPa West 5.0 km/h 7.4 km/h 73% 0.0 mm FEW
10:26 14.1 °C 9.3 °C 1018.5 hPa NW 5.0 km/h 7.4 km/h 73% 0.0 mm FEW
10:31 14.2 °C 9.2 °C 1018.5 hPa West 5.0 km/h 9.3 km/h 72% 0.0 mm FEW
10:36 14.4 °C 9.4 °C 1018.5 hPa SW 5.0 km/h 9.3 km/h 72% 0.0 mm FEW
10:41 14.4 °C 9.4 °C 1018.5 hPa SSW 5.0 km/h 5.6 km/h 72% 0.0 mm FEW
10:46 14.7 °C 9.5 °C 1018.5 hPa SW 5.0 km/h 7.4 km/h 71% 0.0 mm FEW
10:51 14.8 °C 9.4 °C 1018.5 hPa West 4.7 km/h 6.4 km/h 70% 0.0 mm FEW
10:56 15.1 °C 9.7 °C 1018.5 hPa South 4.7 km/h 9.3 km/h 70% 0.0 mm FEW
11:01 15.3 °C 9.7 °C 1018.8 hPa SW 4.7 km/h 11.1 km/h 69% 0.0 mm FEW
11:06 15.3 °C 9.7 °C 1018.8 hPa SSE 4.7 km/h 7.4 km/h 69% 0.0 mm FEW
11:11 15.4 °C 9.5 °C 1018.8 hPa NNW 4.7 km/h 5.6 km/h 68% 0.0 mm FEW
11:16 15.6 °C 9.7 °C 1018.8 hPa NE 4.7 km/h 4.7 km/h 68% 0.0 mm BKN
11:21 15.9 °C 9.8 °C 1018.8 hPa South 3.2 km/h 9.3 km/h 67% 0.0 mm BKN
11:26 16.1 °C 9.7 °C 1018.8 hPa West 3.2 km/h 9.3 km/h 66% 0.0 mm
11:31 16.2 °C 9.8 °C 1018.8 hPa SSE 4.7 km/h 7.4 km/h 66% 0.0 mm
11:36 16.3 °C 9.7 °C 1018.8 hPa SSW 4.7 km/h 9.3 km/h 65% 0.0 mm BKN
11:41 16.3 °C 9.7 °C 1018.8 hPa SE 4.7 km/h 7.4 km/h 65% 0.0 mm BKN
11:46 16.5 °C 9.9 °C 1018.5 hPa NW 4.7 km/h 4.7 km/h 65% 0.0 mm
11:51 16.7 °C 9.6 °C 1018.5 hPa SW 3.9 km/h 8.4 km/h 63% 0.0 mm
11:56 16.6 °C 9.5 °C 1018.5 hPa WSW 3.9 km/h 9.3 km/h 63% 0.0 mm
12:01 16.3 °C 9.5 °C 1018.5 hPa WNW 5.8 km/h 7.4 km/h 64% 0.0 mm
12:06 16.0 °C 9.4 °C 1018.5 hPa South 5.8 km/h 11.1 km/h 65% 0.0 mm
12:07 15.9 °C 9.3 °C 1018.5 hPa SSW 5.8 km/h 11.1 km/h 65% 0.0 mm
12:12 15.9 °C 9.3 °C 1018.5 hPa SW 5.8 km/h 5.8 km/h 65% 0.0 mm
12:17 16.2 °C 9.4 °C 1018.5 hPa WNW 5.8 km/h 9.5 km/h 64% 0.0 mm
Murcia-Puente Tocinos, España
Compliments of Weather Underground - 2 mb

La estación de MeteoMurcia.com, publica sus datos en los siguientes proyectos:

Meteoclimatic www.awekas.at

W3Counter
Web Analytics